createdAt,value
2018-12-07T00:01:35.205Z,15.13
2018-12-07T00:04:04.018Z,16.60
2018-12-07T00:06:32.729Z,16.80
2018-12-07T00:09:01.510Z,15.30
2018-12-07T00:11:30.301Z,17.87
2018-12-07T00:13:58.804Z,16.00
2018-12-07T00:16:27.450Z,16.17
2018-12-07T00:18:55.932Z,15.20
2018-12-07T00:21:24.429Z,16.53
2018-12-07T00:23:53.139Z,15.20
2018-12-07T00:26:21.785Z,14.40
2018-12-07T00:28:50.516Z,15.00
2018-12-07T00:31:18.999Z,13.57
2018-12-07T00:33:47.794Z,13.33
2018-12-07T00:36:16.421Z,12.70
2018-12-07T00:38:45.007Z,12.43
2018-12-07T00:41:13.537Z,12.00
2018-12-07T00:43:42.111Z,12.20
2018-12-07T00:46:10.727Z,12.43
2018-12-07T00:48:39.425Z,12.67
2018-12-07T00:51:08.117Z,13.73
2018-12-07T00:53:36.691Z,13.43
2018-12-07T00:56:05.396Z,13.73
2018-12-07T00:58:34.147Z,14.07
2018-12-07T01:01:02.779Z,14.37
2018-12-07T01:03:31.305Z,14.87
2018-12-07T01:05:59.948Z,14.80
2018-12-07T01:08:28.470Z,15.13
2018-12-07T01:10:56.995Z,15.10
2018-12-07T01:13:25.604Z,15.23
2018-12-07T01:15:54.132Z,15.37
2018-12-07T01:18:22.920Z,14.60
2018-12-07T01:20:51.670Z,17.90
2018-12-07T01:23:20.370Z,30.23
2018-12-07T01:25:49.068Z,30.40
2018-12-07T01:28:17.709Z,15.90
2018-12-07T01:30:46.559Z,15.37
2018-12-07T01:33:15.211Z,18.40
2018-12-07T01:35:43.840Z,14.27
2018-12-07T01:38:12.537Z,14.87
2018-12-07T01:40:41.199Z,12.80
2018-12-07T01:43:09.810Z,12.80
2018-12-07T01:45:38.348Z,12.73
2018-12-07T01:48:06.924Z,12.03
2018-12-07T01:50:35.571Z,11.57
2018-12-07T01:53:04.371Z,12.43
2018-12-07T01:55:32.914Z,11.43
2018-12-07T01:58:01.414Z,12.10
2018-12-07T02:00:30.156Z,11.40
2018-12-07T02:02:58.839Z,12.13
2018-12-07T02:05:27.549Z,10.57
2018-12-07T02:07:56.115Z,11.23
2018-12-07T02:10:24.758Z,10.63
2018-12-07T02:12:53.448Z,11.23
2018-12-07T02:15:21.987Z,10.40
2018-12-07T02:17:50.652Z,10.80
2018-12-07T02:20:19.340Z,10.90
2018-12-07T02:22:48.094Z,10.17
2018-12-07T02:25:16.802Z,10.17
2018-12-07T02:27:50.715Z,9.73
2018-12-07T02:30:19.431Z,9.67
2018-12-07T02:32:48.071Z,9.60
2018-12-07T02:35:16.718Z,10.67
2018-12-07T02:37:45.421Z,9.17
2018-12-07T02:40:13.923Z,10.03
2018-12-07T02:42:42.464Z,9.20
2018-12-07T02:45:11.095Z,8.90
2018-12-07T02:47:40.500Z,9.87
2018-12-07T02:50:09.373Z,10.37
2018-12-07T02:52:37.904Z,10.33
2018-12-07T02:55:07.196Z,10.70
2018-12-07T02:57:35.709Z,11.10
2018-12-07T03:00:05.185Z,10.00
2018-12-07T03:02:34.598Z,9.33
2018-12-07T03:05:03.274Z,9.47
2018-12-07T03:07:31.976Z,9.23
2018-12-07T03:10:00.577Z,9.27
2018-12-07T03:12:29.064Z,9.50
2018-12-07T03:14:57.589Z,9.00
2018-12-07T03:17:26.110Z,8.83
2018-12-07T03:19:54.788Z,8.67
2018-12-07T03:22:23.379Z,8.97
2018-12-07T03:24:51.957Z,8.10
2018-12-07T03:27:20.520Z,9.93
2018-12-07T03:29:49.263Z,8.70
2018-12-07T03:32:17.973Z,9.43
2018-12-07T03:34:46.600Z,8.87
2018-12-07T03:37:15.140Z,8.93
2018-12-07T03:39:43.659Z,8.90
2018-12-07T03:42:12.252Z,8.60
2018-12-07T03:44:40.834Z,9.83
2018-12-07T03:47:09.453Z,8.63
2018-12-07T03:49:37.934Z,8.77
2018-12-07T03:52:06.518Z,9.00
2018-12-07T03:54:35.201Z,8.47
2018-12-07T03:57:03.899Z,8.90
2018-12-07T03:59:32.550Z,8.93
2018-12-07T04:02:01.373Z,9.00
2018-12-07T04:04:29.988Z,9.60
2018-12-07T04:06:58.531Z,9.10
2018-12-07T04:09:27.201Z,9.17
2018-12-07T04:11:55.745Z,8.70
2018-12-07T04:14:24.392Z,8.97
2018-12-07T04:16:52.876Z,8.40
2018-12-07T04:19:21.393Z,8.33
2018-12-07T04:21:50.044Z,9.17
2018-12-07T04:24:18.680Z,7.90
2018-12-07T04:26:47.469Z,9.80
2018-12-07T04:29:16.264Z,8.77
2018-12-07T04:31:45.108Z,9.10
2018-12-07T04:34:13.822Z,8.60
2018-12-07T04:36:42.586Z,9.57
2018-12-07T04:39:11.169Z,11.40
2018-12-07T04:41:40.031Z,10.37
2018-12-07T04:44:08.654Z,10.27
2018-12-07T04:46:37.573Z,9.60
2018-12-07T04:49:06.220Z,9.10
2018-12-07T04:51:35.088Z,8.33
2018-12-07T04:54:03.761Z,9.00
2018-12-07T04:56:33.724Z,8.53
2018-12-07T04:59:02.805Z,8.63
2018-12-07T05:01:31.599Z,8.80
2018-12-07T05:04:00.481Z,9.33
2018-12-07T05:06:29.159Z,9.33
2018-12-07T05:08:57.943Z,9.77
2018-12-07T05:11:27.048Z,10.00
2018-12-07T05:13:55.814Z,9.27
2018-12-07T05:16:24.780Z,9.67
2018-12-07T05:18:53.680Z,8.83
2018-12-07T05:21:22.892Z,9.63
2018-12-07T05:23:51.819Z,9.23
2018-12-07T05:26:20.623Z,8.90
2018-12-07T05:28:49.493Z,9.37
2018-12-07T05:31:18.154Z,9.87
2018-12-07T05:33:47.078Z,8.93
2018-12-07T05:36:16.096Z,9.83
2018-12-07T05:38:44.715Z,9.77
2018-12-07T05:41:13.506Z,9.10
2018-12-07T05:43:55.705Z,9.87
2018-12-07T05:46:24.536Z,9.20
2018-12-07T05:48:53.585Z,8.83
2018-12-07T05:51:22.135Z,8.83
2018-12-07T05:53:50.892Z,8.83
2018-12-07T05:56:19.555Z,9.33
2018-12-07T05:58:48.040Z,8.73
2018-12-07T06:01:16.858Z,9.33
2018-12-07T06:03:45.760Z,8.80
2018-12-07T06:06:14.479Z,8.00
2018-12-07T06:08:43.393Z,9.13
2018-12-07T06:11:12.352Z,9.90
2018-12-07T06:13:40.970Z,8.47
2018-12-07T06:16:09.666Z,10.10
2018-12-07T06:18:38.305Z,9.00
2018-12-07T06:21:07.195Z,9.20
2018-12-07T06:23:35.999Z,9.47
2018-12-07T06:26:04.899Z,9.03
2018-12-07T06:28:33.631Z,9.23
2018-12-07T06:31:02.327Z,9.43
2018-12-07T06:33:30.980Z,9.37
2018-12-07T06:35:59.670Z,9.87
2018-12-07T06:38:28.318Z,8.37
2018-12-07T06:40:57.072Z,9.40
2018-12-07T06:43:25.965Z,9.27
2018-12-07T06:45:54.557Z,9.50
2018-12-07T06:48:23.373Z,10.13
2018-12-07T06:50:52.039Z,11.10
2018-12-07T06:53:20.795Z,11.43
2018-12-07T06:55:49.666Z,10.87
2018-12-07T06:58:18.406Z,11.77
2018-12-07T07:00:47.296Z,11.57
2018-12-07T07:03:16.241Z,11.47
2018-12-07T07:05:44.994Z,10.97
2018-12-07T07:08:13.957Z,10.90
2018-12-07T07:10:42.646Z,9.83
2018-12-07T07:13:11.546Z,9.37
2018-12-07T07:15:40.260Z,9.23
2018-12-07T07:18:09.147Z,9.47
2018-12-07T07:20:38.195Z,10.23
2018-12-07T07:23:06.895Z,10.17
2018-12-07T07:25:35.660Z,9.40
2018-12-07T07:28:04.597Z,9.90
2018-12-07T07:30:33.474Z,10.27
2018-12-07T07:33:02.297Z,8.53
2018-12-07T07:35:31.041Z,11.13
2018-12-07T07:37:59.696Z,10.33
2018-12-07T07:40:28.431Z,9.90
2018-12-07T07:42:57.173Z,10.97
2018-12-07T07:45:26.061Z,11.73
2018-12-07T07:47:54.832Z,11.00
2018-12-07T07:50:23.673Z,9.23
2018-12-07T07:52:52.274Z,8.10
2018-12-07T07:55:21.008Z,8.63
2018-12-07T07:57:49.634Z,9.20
2018-12-07T08:00:18.214Z,9.00
2018-12-07T08:02:46.933Z,8.47
2018-12-07T08:05:15.472Z,8.30
2018-12-07T08:07:44.012Z,7.77
2018-12-07T08:10:12.656Z,7.90
2018-12-07T08:12:42.165Z,8.67
2018-12-07T08:15:10.772Z,8.93
2018-12-07T08:17:39.329Z,7.73
2018-12-07T08:20:07.875Z,8.50
2018-12-07T08:22:36.462Z,8.00
2018-12-07T08:25:05.819Z,8.40
2018-12-07T08:27:34.508Z,8.80
2018-12-07T08:30:03.174Z,8.23
2018-12-07T08:32:31.870Z,8.23
2018-12-07T08:35:00.592Z,8.13
2018-12-07T08:37:29.100Z,8.13
2018-12-07T08:39:57.876Z,7.93
2018-12-07T08:42:26.509Z,8.13
2018-12-07T08:44:55.045Z,7.93
2018-12-07T08:47:23.809Z,8.33
2018-12-07T08:49:57.307Z,7.40
2018-12-07T08:52:26.559Z,7.43
2018-12-07T08:54:55.093Z,8.40
2018-12-07T08:57:23.784Z,8.40
2018-12-07T08:59:52.392Z,7.83
2018-12-07T09:02:20.940Z,8.33
2018-12-07T09:04:49.526Z,8.50
2018-12-07T09:07:18.231Z,8.13
2018-12-07T09:09:46.776Z,8.10
2018-12-07T09:12:16.232Z,8.03
2018-12-07T09:14:44.785Z,8.00
2018-12-07T09:17:13.578Z,8.20
2018-12-07T09:19:42.567Z,7.63
2018-12-07T09:22:11.360Z,8.20
2018-12-07T09:24:40.032Z,8.83
2018-12-07T09:27:09.218Z,7.77
2018-12-07T09:29:38.353Z,7.87
2018-12-07T09:32:07.279Z,7.77
2018-12-07T09:34:35.984Z,7.90
2018-12-07T09:37:05.733Z,8.47
2018-12-07T09:39:34.371Z,8.13
2018-12-07T09:42:03.224Z,7.37
2018-12-07T09:44:31.759Z,7.23
2018-12-07T09:47:00.399Z,7.60
2018-12-07T09:49:29.064Z,8.37
2018-12-07T09:51:57.569Z,8.07
2018-12-07T09:54:26.136Z,8.27
2018-12-07T09:56:54.707Z,7.77
2018-12-07T09:59:23.303Z,8.23
2018-12-07T10:01:52.037Z,7.53
2018-12-07T10:04:20.609Z,7.87
2018-12-07T10:06:49.182Z,7.23
2018-12-07T10:09:17.904Z,8.10
2018-12-07T10:11:46.490Z,7.03
2018-12-07T10:14:15.088Z,7.20
2018-12-07T10:16:43.603Z,8.20
2018-12-07T10:19:12.325Z,7.67
2018-12-07T10:21:40.915Z,7.60
2018-12-07T10:24:09.617Z,7.30
2018-12-07T10:26:38.481Z,7.57
2018-12-07T10:29:07.111Z,7.83
2018-12-07T10:31:35.747Z,7.63
2018-12-07T10:34:04.503Z,8.10
2018-12-07T10:36:33.028Z,6.83
2018-12-07T10:39:01.721Z,7.43
2018-12-07T10:41:30.327Z,7.17
2018-12-07T10:43:58.809Z,7.10
2018-12-07T10:46:27.324Z,7.90
2018-12-07T10:48:56.096Z,7.53
2018-12-07T10:51:24.802Z,7.03
2018-12-07T10:53:54.007Z,7.10
2018-12-07T10:56:23.087Z,6.83
2018-12-07T10:58:51.933Z,7.57
2018-12-07T11:01:26.011Z,7.37
2018-12-07T11:03:59.972Z,8.43
2018-12-07T11:06:33.790Z,7.17
2018-12-07T11:10:05.009Z,8.30
2018-12-07T11:12:38.936Z,8.07
2018-12-07T11:15:12.932Z,8.80
2018-12-07T11:17:46.623Z,8.07
2018-12-07T11:20:20.979Z,7.97
2018-12-07T11:22:54.856Z,8.23
2018-12-07T11:25:28.698Z,8.20
2018-12-07T11:28:02.831Z,8.60
2018-12-07T11:30:36.810Z,8.77
2018-12-07T11:33:10.741Z,8.63
2018-12-07T11:35:41.223Z,7.77
2018-12-07T11:38:09.749Z,8.50
2018-12-07T11:40:38.378Z,9.33
2018-12-07T11:43:06.859Z,9.47
2018-12-07T11:45:35.474Z,9.13
2018-12-07T11:48:04.068Z,9.20
2018-12-07T11:50:32.822Z,9.73
2018-12-07T11:53:01.367Z,9.77
2018-12-07T11:55:29.939Z,9.60
2018-12-07T11:57:58.624Z,8.50
2018-12-07T12:00:27.243Z,9.07
2018-12-07T12:02:55.751Z,9.33
2018-12-07T12:05:24.563Z,9.27
2018-12-07T12:07:53.208Z,9.30
2018-12-07T12:10:22.481Z,9.63
2018-12-07T12:12:51.245Z,10.27
2018-12-07T12:15:19.975Z,10.93
2018-12-07T12:17:48.803Z,11.77
2018-12-07T12:20:17.790Z,11.33
2018-12-07T12:22:46.442Z,10.57
2018-12-07T12:25:15.132Z,10.00
2018-12-07T12:27:43.723Z,10.77
2018-12-07T12:30:12.449Z,10.03
2018-12-07T12:32:41.081Z,10.37
2018-12-07T12:35:09.583Z,10.83
2018-12-07T12:37:38.355Z,11.20
2018-12-07T12:40:07.098Z,10.63
2018-12-07T12:42:35.895Z,10.80
2018-12-07T12:45:04.914Z,11.03
2018-12-07T12:47:33.711Z,10.80
2018-12-07T12:50:02.409Z,10.80
2018-12-07T12:52:31.240Z,12.10
2018-12-07T12:54:59.973Z,12.27
2018-12-07T12:57:28.614Z,12.73
2018-12-07T12:59:58.967Z,13.07
2018-12-07T13:02:28.829Z,14.63
2018-12-07T13:04:57.541Z,12.43
2018-12-07T13:07:26.135Z,14.23
2018-12-07T13:09:54.714Z,13.57
2018-12-07T13:12:23.503Z,13.37
2018-12-07T13:14:52.110Z,13.97
2018-12-07T13:17:20.770Z,13.53
2018-12-07T13:19:49.530Z,13.80
2018-12-07T13:22:18.029Z,14.43
2018-12-07T13:24:46.815Z,16.10
2018-12-07T13:27:15.713Z,15.90
2018-12-07T13:29:44.520Z,15.27
2018-12-07T13:32:13.512Z,15.03
2018-12-07T13:34:42.331Z,16.13
2018-12-07T13:37:11.022Z,19.63
2018-12-07T13:39:39.819Z,17.83
2018-12-07T13:42:08.494Z,19.00
2018-12-07T13:44:37.265Z,18.10
2018-12-07T13:47:06.292Z,19.63
2018-12-07T13:49:35.247Z,18.57
2018-12-07T13:52:04.513Z,19.47
2018-12-07T13:54:33.562Z,20.80
2018-12-07T13:57:02.552Z,21.13
2018-12-07T13:59:31.503Z,21.50
2018-12-07T14:02:00.268Z,20.73
2018-12-07T14:04:29.280Z,21.67
2018-12-07T14:06:58.155Z,21.90
2018-12-07T14:09:26.954Z,22.70
2018-12-07T14:11:55.871Z,23.67
2018-12-07T14:14:24.515Z,24.80
2018-12-07T14:16:53.636Z,24.63
2018-12-07T14:19:22.628Z,26.67
2018-12-07T14:21:51.667Z,27.37
2018-12-07T14:24:20.443Z,28.47
2018-12-07T14:26:49.158Z,28.50
2018-12-07T14:29:18.100Z,29.97
2018-12-07T14:31:47.038Z,29.27
2018-12-07T14:34:15.938Z,29.27
2018-12-07T14:36:44.824Z,30.33
2018-12-07T14:39:13.840Z,30.57
2018-12-07T14:41:42.638Z,29.90
2018-12-07T14:44:11.738Z,31.47
2018-12-07T14:46:41.269Z,32.27
2018-12-07T14:49:10.147Z,31.37
2018-12-07T14:51:39.270Z,33.47
2018-12-07T14:54:08.327Z,31.90
2018-12-07T14:56:37.180Z,30.20
2018-12-07T14:59:06.168Z,33.47
2018-12-07T15:01:34.997Z,32.83
2018-12-07T15:04:04.434Z,33.60
2018-12-07T15:06:33.251Z,32.77
2018-12-07T15:09:04.119Z,32.57
2018-12-07T15:11:33.068Z,33.57
2018-12-07T15:14:02.083Z,33.90
2018-12-07T15:16:31.447Z,32.37
2018-12-07T15:19:07.870Z,33.00
2018-12-07T15:21:36.538Z,30.97
2018-12-07T15:24:05.429Z,30.33
2018-12-07T15:26:34.989Z,30.30
2018-12-07T15:29:04.061Z,29.87
2018-12-07T15:31:32.934Z,29.53
2018-12-07T15:34:01.977Z,29.67
2018-12-07T15:36:30.775Z,28.77
2018-12-07T15:39:01.593Z,28.00
2018-12-07T15:41:30.634Z,27.40
2018-12-07T15:44:00.758Z,25.67
2018-12-07T15:46:30.624Z,25.33
2018-12-07T15:48:59.662Z,27.07
2018-12-07T15:51:28.711Z,25.87
2018-12-07T15:53:57.929Z,27.27
2018-12-07T15:56:27.010Z,27.37
2018-12-07T15:58:56.571Z,26.67
2018-12-07T16:01:25.711Z,26.40
2018-12-07T16:03:56.015Z,28.10
2018-12-07T16:06:24.730Z,27.03
2018-12-07T16:08:54.464Z,28.17
2018-12-07T16:11:23.677Z,29.17
2018-12-07T16:13:53.061Z,27.93
2018-12-07T16:16:21.951Z,29.23
2018-12-07T16:18:51.906Z,29.90
2018-12-07T16:21:20.758Z,33.77
2018-12-07T16:23:49.652Z,30.43
2018-12-07T16:26:20.077Z,30.90
2018-12-07T16:28:49.122Z,30.37
2018-12-07T16:31:18.055Z,28.10
2018-12-07T16:33:47.134Z,28.57
2018-12-07T16:36:17.054Z,27.50
2018-12-07T16:38:45.818Z,28.27
2018-12-07T16:41:14.846Z,27.50
2018-12-07T16:43:44.026Z,28.37
2018-12-07T16:46:14.229Z,28.97
2018-12-07T16:51:44.296Z,30.27
2018-12-07T16:54:13.137Z,29.63
2018-12-07T16:56:43.593Z,30.47
2018-12-07T16:59:14.556Z,31.10
2018-12-07T17:01:43.609Z,32.67
2018-12-07T17:04:12.839Z,33.43
2018-12-07T17:06:42.400Z,32.60
2018-12-07T17:09:11.377Z,35.03
2018-12-07T17:11:40.250Z,34.67
2018-12-07T17:14:09.426Z,35.83
2018-12-07T17:16:38.799Z,42.57
2018-12-07T17:19:07.704Z,39.00
2018-12-07T17:21:36.982Z,36.77
2018-12-07T17:24:06.022Z,38.00
2018-12-07T17:26:34.995Z,36.87
2018-12-07T17:29:04.826Z,37.40
2018-12-07T17:31:33.918Z,38.40
2018-12-07T17:34:03.151Z,37.77
2018-12-07T17:36:32.018Z,38.10
2018-12-07T17:39:00.918Z,39.20
2018-12-07T17:41:30.617Z,38.93
2018-12-07T17:43:59.640Z,39.97
2018-12-07T17:46:29.390Z,38.87
2018-12-07T17:48:58.652Z,38.20
2018-12-07T17:51:27.944Z,38.50
2018-12-07T17:53:57.107Z,37.37
2018-12-07T17:56:26.920Z,36.53
2018-12-07T17:58:56.028Z,34.90
2018-12-07T18:01:25.157Z,36.30
2018-12-07T18:03:54.246Z,36.43
2018-12-07T18:06:24.015Z,37.90
2018-12-07T18:08:52.745Z,35.83
2018-12-07T18:11:21.404Z,37.00
2018-12-07T18:13:50.248Z,37.20
2018-12-07T18:16:19.938Z,40.53
2018-12-07T18:18:48.809Z,40.53
2018-12-07T18:21:17.911Z,41.43
2018-12-07T18:23:46.938Z,40.73
2018-12-07T18:26:16.290Z,44.50
2018-12-07T18:28:45.830Z,44.07
2018-12-07T18:31:15.639Z,41.97
2018-12-07T18:33:44.581Z,41.33
2018-12-07T18:36:14.002Z,39.17
2018-12-07T18:38:43.471Z,43.97
2018-12-07T18:41:12.009Z,44.90
2018-12-07T18:43:40.712Z,43.53
2018-12-07T18:46:09.432Z,40.63
2018-12-07T18:48:39.064Z,38.47
2018-12-07T18:51:07.853Z,40.83
2018-12-07T18:53:36.807Z,39.80
2018-12-07T18:56:05.782Z,39.57
2018-12-07T18:58:34.706Z,39.60
2018-12-07T19:01:04.586Z,43.87
2018-12-07T19:03:33.482Z,41.90
2018-12-07T19:06:02.559Z,45.67
2018-12-07T19:08:31.441Z,44.37
2018-12-07T19:11:00.362Z,42.90
2018-12-07T19:13:29.363Z,44.33
2018-12-07T19:15:58.084Z,44.13
2018-12-07T19:18:27.038Z,45.00
2018-12-07T19:20:56.295Z,42.80
2018-12-07T19:23:28.085Z,45.20
2018-12-07T19:25:56.760Z,46.77
2018-12-07T19:28:25.575Z,46.57
2018-12-07T19:30:54.613Z,46.67
2018-12-07T19:33:23.619Z,48.23
2018-12-07T19:35:52.570Z,48.43
2018-12-07T19:38:21.585Z,45.83
2018-12-07T19:40:50.490Z,46.20
2018-12-07T19:43:19.355Z,46.63
2018-12-07T19:45:48.410Z,48.20
2018-12-07T19:48:17.265Z,44.67
2018-12-07T19:50:46.368Z,48.43
2018-12-07T19:53:15.585Z,48.23
2018-12-07T19:55:45.434Z,49.10
2018-12-07T19:58:15.040Z,50.37
2018-12-07T20:00:44.585Z,50.57
2018-12-07T20:03:13.326Z,51.10
2018-12-07T20:05:42.917Z,51.63
2018-12-07T20:08:11.796Z,46.87
2018-12-07T20:10:40.902Z,47.63
2018-12-07T20:13:09.628Z,49.93
2018-12-07T20:15:38.641Z,49.20
2018-12-07T20:18:08.567Z,47.17
2018-12-07T20:20:38.128Z,47.10
2018-12-07T20:23:07.006Z,45.90
2018-12-07T20:25:36.048Z,47.43
2018-12-07T20:28:04.733Z,45.37
2018-12-07T20:30:33.548Z,45.23
2018-12-07T20:33:02.374Z,44.37
2018-12-07T20:35:31.015Z,42.80
2018-12-07T20:38:00.003Z,43.47
2018-12-07T20:40:28.983Z,43.40
2018-12-07T20:42:57.970Z,42.93
2018-12-07T20:45:26.645Z,43.37
2018-12-07T20:47:55.483Z,43.00
2018-12-07T20:50:25.005Z,41.40
2018-12-07T20:52:54.902Z,39.33
2018-12-07T20:55:24.477Z,38.57
2018-12-07T20:57:53.544Z,34.93
2018-12-07T21:00:23.984Z,36.03
2018-12-07T21:02:52.829Z,37.33
2018-12-07T21:05:38.876Z,35.73
2018-12-07T21:08:14.660Z,35.93
2018-12-07T21:11:17.671Z,37.57
2018-12-07T21:14:58.536Z,37.00
2018-12-07T21:17:34.800Z,37.00
2018-12-07T21:20:16.285Z,37.53
2018-12-07T21:22:46.092Z,39.47
2018-12-07T21:25:14.813Z,37.73
2018-12-07T21:27:44.144Z,39.43
2018-12-07T21:30:50.776Z,40.00
2018-12-07T21:34:29.457Z,41.23
2018-12-07T21:36:58.995Z,40.00
2018-12-07T21:39:38.865Z,42.23
2018-12-07T21:42:07.813Z,43.13
2018-12-07T21:44:37.005Z,44.60
2018-12-07T21:47:05.953Z,44.03
2018-12-07T21:49:49.180Z,43.33
2018-12-07T21:52:26.528Z,45.00
2018-12-07T21:54:55.616Z,44.87
2018-12-07T21:57:24.897Z,45.97
2018-12-07T21:59:53.926Z,44.17
2018-12-07T22:02:22.875Z,43.97
2018-12-07T22:04:52.063Z,45.37
2018-12-07T22:07:21.006Z,45.97
2018-12-07T22:09:50.078Z,46.13
2018-12-07T22:12:19.055Z,45.87
2018-12-07T22:14:48.096Z,47.47
2018-12-07T22:17:16.994Z,46.27
2018-12-07T22:19:46.440Z,46.47
2018-12-07T22:22:15.532Z,47.73
2018-12-07T22:24:44.837Z,45.83
2018-12-07T22:27:13.593Z,46.03
2018-12-07T22:29:42.574Z,48.57
2018-12-07T22:32:12.707Z,46.37
2018-12-07T22:34:41.720Z,48.37
2018-12-07T22:37:10.797Z,48.43
2018-12-07T22:39:39.661Z,49.07
2018-12-07T22:42:08.695Z,46.13
2018-12-07T22:44:37.853Z,45.10
2018-12-07T22:47:06.813Z,47.23
2018-12-07T22:49:37.472Z,46.43
2018-12-07T22:52:06.371Z,47.40
2018-12-07T22:54:35.098Z,47.77
2018-12-07T22:57:03.995Z,49.97
2018-12-07T22:59:32.794Z,48.63
2018-12-07T23:02:01.987Z,46.90
2018-12-07T23:04:30.858Z,48.33
2018-12-07T23:06:59.726Z,48.50
2018-12-07T23:09:28.959Z,49.27
2018-12-07T23:11:58.316Z,45.53
2018-12-07T23:14:26.845Z,46.03
2018-12-07T23:16:55.850Z,47.43
2018-12-07T23:19:24.798Z,47.43
2018-12-07T23:21:53.693Z,47.13
2018-12-07T23:24:22.414Z,49.27
2018-12-07T23:26:51.405Z,46.37
2018-12-07T23:29:23.346Z,47.70
2018-12-07T23:32:01.473Z,46.30
2018-12-07T23:34:31.289Z,44.10
2018-12-07T23:37:00.402Z,44.97
2018-12-07T23:39:30.617Z,45.50
2018-12-07T23:41:59.149Z,46.17
2018-12-07T23:44:28.016Z,46.33
2018-12-07T23:46:56.767Z,47.33
2018-12-07T23:49:27.082Z,46.23
2018-12-07T23:51:56.170Z,44.87
2018-12-07T23:54:24.970Z,48.47
2018-12-07T23:56:54.365Z,49.23
2018-12-07T23:59:23.053Z,47.67
